sensor_id;sensor_type;location;lat;lon;timestamp;noise_LAeq;noise_LA_min;noise_LA_max;noise_LA01;noise_LA95
73206;Laerm;61415;55.702;37.460;2023-03-12T00:00:18;62.87;58.71;67.22;;
73206;Laerm;61415;55.702;37.460;2023-03-12T00:00:49;61.49;56.84;66.90;;
73206;Laerm;61415;55.702;37.460;2023-03-12T00:01:21;65.03;57.59;69.18;;
73206;Laerm;61415;55.702;37.460;2023-03-12T00:01:52;65.14;62.03;69.63;;
73206;Laerm;61415;55.702;37.460;2023-03-12T00:02:23;61.86;56.81;65.41;;
73206;Laerm;61415;55.702;37.460;2023-03-12T00:02:54;64.31;58.10;68.75;;
73206;Laerm;61415;55.702;37.460;2023-03-12T00:03:25;62.37;59.23;65.60;;
73206;Laerm;61415;55.702;37.460;2023-03-12T00:03:55;63.27;57.51;67.56;;
73206;Laerm;61415;55.702;37.460;2023-03-12T00:04:26;63.78;58.15;67.95;;
73206;Laerm;61415;55.702;37.460;2023-03-12T00:04:57;62.38;56.51;66.24;;
73206;Laerm;61415;55.702;37.460;2023-03-12T00:05:28;63.90;57.22;69.22;;
73206;Laerm;61415;55.702;37.460;2023-03-12T00:05:58;64.93;58.23;70.38;;
73206;Laerm;61415;55.702;37.460;2023-03-12T00:06:32;66.19;59.90;73.09;;
73206;Laerm;61415;55.702;37.460;2023-03-12T00:07:02;60.80;56.73;65.70;;
73206;Laerm;61415;55.702;37.460;2023-03-12T00:07:35;62.44;57.87;68.43;;
73206;Laerm;61415;55.702;37.460;2023-03-12T00:08:08;63.97;59.31;69.45;;
73206;Laerm;61415;55.702;37.460;2023-03-12T00:08:39;64.56;59.96;69.19;;
73206;Laerm;61415;55.702;37.460;2023-03-12T00:09:10;64.75;60.65;69.91;;
73206;Laerm;61415;55.702;37.460;2023-03-12T00:09:40;62.86;54.18;70.81;;
73206;Laerm;61415;55.702;37.460;2023-03-12T00:10:11;61.85;56.05;67.03;;
73206;Laerm;61415;55.702;37.460;2023-03-12T00:10:42;62.66;58.75;65.61;;
73206;Laerm;61415;55.702;37.460;2023-03-12T00:11:14;63.13;56.68;67.04;;
73206;Laerm;61415;55.702;37.460;2023-03-12T00:11:45;64.44;58.08;69.99;;
73206;Laerm;61415;55.702;37.460;2023-03-12T00:12:16;66.56;60.91;70.59;;
73206;Laerm;61415;55.702;37.460;2023-03-12T00:12:46;65.37;60.47;69.26;;
73206;Laerm;61415;55.702;37.460;2023-03-12T00:13:17;66.22;61.05;69.88;;
73206;Laerm;61415;55.702;37.460;2023-03-12T00:13:51;67.59;64.43;70.64;;
73206;Laerm;61415;55.702;37.460;2023-03-12T00:14:22;63.82;59.76;67.44;;
73206;Laerm;61415;55.702;37.460;2023-03-12T00:14:53;61.28;57.42;65.28;;
73206;Laerm;61415;55.702;37.460;2023-03-12T00:15:24;61.48;55.93;64.76;;
73206;Laerm;61415;55.702;37.460;2023-03-12T00:15:55;63.82;59.89;67.49;;
73206;Laerm;61415;55.702;37.460;2023-03-12T00:16:25;63.46;59.00;67.26;;
73206;Laerm;61415;55.702;37.460;2023-03-12T00:16:56;63.70;58.07;69.62;;
73206;Laerm;61415;55.702;37.460;2023-03-12T00:17:27;67.58;59.85;73.74;;
73206;Laerm;61415;55.702;37.460;2023-03-12T00:17:58;62.28;57.90;65.84;;
73206;Laerm;61415;55.702;37.460;2023-03-12T00:18:29;62.27;57.68;66.30;;
73206;Laerm;61415;55.702;37.460;2023-03-12T00:19:00;65.07;56.22;69.08;;
73206;Laerm;61415;55.702;37.460;2023-03-12T00:19:30;66.19;58.75;70.53;;
73206;Laerm;61415;55.702;37.460;2023-03-12T00:20:02;67.77;61.56;72.71;;
73206;Laerm;61415;55.702;37.460;2023-03-12T00:20:33;62.41;55.58;69.02;;
73206;Laerm;61415;55.702;37.460;2023-03-12T00:21:04;63.13;57.68;67.09;;
73206;Laerm;61415;55.702;37.460;2023-03-12T00:21:34;63.36;59.20;67.43;;
73206;Laerm;61415;55.702;37.460;2023-03-12T00:22:05;62.94;59.89;66.34;;
73206;Laerm;61415;55.702;37.460;2023-03-12T00:22:36;67.50;59.87;71.56;;
73206;Laerm;61415;55.702;37.460;2023-03-12T00:23:07;64.60;56.40;70.02;;
73206;Laerm;61415;55.702;37.460;2023-03-12T00:23:38;62.11;58.02;67.01;;
73206;Laerm;61415;55.702;37.460;2023-03-12T00:24:08;63.43;58.25;66.10;;
73206;Laerm;61415;55.702;37.460;2023-03-12T00:24:39;62.99;57.35;66.26;;
73206;Laerm;61415;55.702;37.460;2023-03-12T00:25:11;58.25;52.60;65.33;;
73206;Laerm;61415;55.702;37.460;2023-03-12T00:25:42;59.10;53.95;63.91;;
73206;Laerm;61415;55.702;37.460;2023-03-12T00:26:13;64.45;58.92;68.25;;
73206;Laerm;61415;55.702;37.460;2023-03-12T00:26:44;62.32;57.71;67.49;;
73206;Laerm;61415;55.702;37.460;2023-03-12T00:27:15;61.47;57.15;65.01;;
73206;Laerm;61415;55.702;37.460;2023-03-12T00:27:46;64.21;57.25;70.40;;
73206;Laerm;61415;55.702;37.460;2023-03-12T00:28:17;61.99;55.17;70.20;;
73206;Laerm;61415;55.702;37.460;2023-03-12T00:28:48;62.80;57.74;67.40;;
73206;Laerm;61415;55.702;37.460;2023-03-12T00:29:19;62.81;58.02;66.30;;
73206;Laerm;61415;55.702;37.460;2023-03-12T00:29:50;66.23;61.75;70.74;;
73206;Laerm;61415;55.702;37.460;2023-03-12T00:30:21;67.18;58.85;73.16;;
73206;Laerm;61415;55.702;37.460;2023-03-12T00:30:52;61.78;56.70;66.56;;
73206;Laerm;61415;55.702;37.460;2023-03-12T00:31:24;61.11;56.04;65.82;;
73206;Laerm;61415;55.702;37.460;2023-03-12T00:31:56;64.91;57.55;72.10;;
73206;Laerm;61415;55.702;37.460;2023-03-12T00:32:27;63.16;59.73;68.79;;
73206;Laerm;61415;55.702;37.460;2023-03-12T00:32:58;62.02;56.46;65.63;;
73206;Laerm;61415;55.702;37.460;2023-03-12T00:33:29;65.28;59.77;70.11;;
73206;Laerm;61415;55.702;37.460;2023-03-12T00:34:00;63.73;59.07;67.76;;
73206;Laerm;61415;55.702;37.460;2023-03-12T00:34:31;61.80;57.98;65.91;;
73206;Laerm;61415;55.702;37.460;2023-03-12T00:35:03;65.43;60.10;70.86;;
73206;Laerm;61415;55.702;37.460;2023-03-12T00:35:34;64.24;59.87;68.59;;
73206;Laerm;61415;55.702;37.460;2023-03-12T00:36:05;62.91;57.40;67.23;;
73206;Laerm;61415;55.702;37.460;2023-03-12T00:36:35;61.76;56.63;66.52;;
73206;Laerm;61415;55.702;37.460;2023-03-12T00:37:06;62.39;57.82;66.63;;
73206;Laerm;61415;55.702;37.460;2023-03-12T00:37:37;61.20;55.54;67.65;;
73206;Laerm;61415;55.702;37.460;2023-03-12T00:38:08;61.78;58.59;66.92;;
73206;Laerm;61415;55.702;37.460;2023-03-12T00:38:39;63.45;57.55;68.39;;
73206;Laerm;61415;55.702;37.460;2023-03-12T00:39:10;62.29;57.08;65.93;;
73206;Laerm;61415;55.702;37.460;2023-03-12T00:39:41;59.00;52.85;65.42;;
73206;Laerm;61415;55.702;37.460;2023-03-12T00:40:11;62.39;56.80;65.93;;
73206;Laerm;61415;55.702;37.460;2023-03-12T00:40:42;58.78;55.36;63.09;;
73206;Laerm;61415;55.702;37.460;2023-03-12T00:41:13;64.79;60.14;67.97;;
73206;Laerm;61415;55.702;37.460;2023-03-12T00:41:44;62.52;55.27;67.30;;
73206;Laerm;61415;55.702;37.460;2023-03-12T00:42:15;62.54;58.59;67.70;;
73206;Laerm;61415;55.702;37.460;2023-03-12T00:42:46;63.94;59.17;70.16;;
73206;Laerm;61415;55.702;37.460;2023-03-12T00:43:17;61.03;56.90;66.64;;
73206;Laerm;61415;55.702;37.460;2023-03-12T00:43:48;59.57;54.26;64.22;;
73206;Laerm;61415;55.702;37.460;2023-03-12T00:44:19;64.06;57.89;69.77;;
73206;Laerm;61415;55.702;37.460;2023-03-12T00:44:50;63.61;58.64;67.97;;
73206;Laerm;61415;55.702;37.460;2023-03-12T00:45:20;61.86;58.39;65.95;;
73206;Laerm;61415;55.702;37.460;2023-03-12T00:45:51;62.19;58.61;65.98;;
73206;Laerm;61415;55.702;37.460;2023-03-12T00:46:22;63.58;58.03;68.88;;
73206;Laerm;61415;55.702;37.460;2023-03-12T00:46:53;60.55;56.74;65.15;;
73206;Laerm;61415;55.702;37.460;2023-03-12T00:47:23;64.62;61.10;68.52;;
73206;Laerm;61415;55.702;37.460;2023-03-12T00:47:54;64.93;60.56;70.29;;
73206;Laerm;61415;55.702;37.460;2023-03-12T00:48:25;66.36;60.21;71.66;;
73206;Laerm;61415;55.702;37.460;2023-03-12T00:48:56;63.21;59.80;69.80;;
73206;Laerm;61415;55.702;37.460;2023-03-12T00:49:27;61.80;57.69;66.07;;
73206;Laerm;61415;55.702;37.460;2023-03-12T00:49:57;62.14;56.38;67.23;;
73206;Laerm;61415;55.702;37.460;2023-03-12T00:50:28;65.36;59.49;70.14;;
73206;Laerm;61415;55.702;37.460;2023-03-12T00:50:59;61.93;57.75;65.75;;
73206;Laerm;61415;55.702;37.460;2023-03-12T00:51:30;62.56;58.38;65.54;;
73206;Laerm;61415;55.702;37.460;2023-03-12T00:52:01;64.87;57.26;69.89;;
73206;Laerm;61415;55.702;37.460;2023-03-12T00:52:31;65.01;58.18;69.34;;
73206;Laerm;61415;55.702;37.460;2023-03-12T00:53:02;64.86;59.55;69.36;;
73206;Laerm;61415;55.702;37.460;2023-03-12T00:53:33;62.79;55.31;69.23;;
73206;Laerm;61415;55.702;37.460;2023-03-12T00:54:04;58.76;53.27;63.27;;
73206;Laerm;61415;55.702;37.460;2023-03-12T00:54:35;63.46;57.47;67.44;;
73206;Laerm;61415;55.702;37.460;2023-03-12T00:55:06;60.18;54.50;65.91;;
73206;Laerm;61415;55.702;37.460;2023-03-12T00:55:36;61.28;55.39;66.20;;
73206;Laerm;61415;55.702;37.460;2023-03-12T00:56:07;59.46;53.13;63.95;;
73206;Laerm;61415;55.702;37.460;2023-03-12T00:56:38;62.58;57.23;68.19;;
73206;Laerm;61415;55.702;37.460;2023-03-12T00:57:09;60.18;53.74;67.81;;
73206;Laerm;61415;55.702;37.460;2023-03-12T00:57:39;60.83;55.03;67.34;;
73206;Laerm;61415;55.702;37.460;2023-03-12T00:58:10;65.49;60.22;70.39;;
73206;Laerm;61415;55.702;37.460;2023-03-12T00:58:41;62.61;57.39;70.16;;
73206;Laerm;61415;55.702;37.460;2023-03-12T00:59:15;63.77;58.07;68.87;;
73206;Laerm;61415;55.702;37.460;2023-03-12T00:59:46;63.71;57.45;68.22;;
73206;Laerm;61415;55.702;37.460;2023-03-12T01:00:17;62.66;57.65;69.69;;
73206;Laerm;61415;55.702;37.460;2023-03-12T01:00:48;62.50;57.78;70.73;;
73206;Laerm;61415;55.702;37.460;2023-03-12T01:01:18;65.20;58.16;72.30;;
73206;Laerm;61415;55.702;37.460;2023-03-12T01:01:49;65.31;58.19;71.41;;
73206;Laerm;61415;55.702;37.460;2023-03-12T01:02:20;58.04;53.24;62.39;;
73206;Laerm;61415;55.702;37.460;2023-03-12T01:02:51;59.08;54.30;64.69;;
73206;Laerm;61415;55.702;37.460;2023-03-12T01:03:22;60.39;54.95;66.57;;
73206;Laerm;61415;55.702;37.460;2023-03-12T01:03:53;64.19;58.29;68.46;;
73206;Laerm;61415;55.702;37.460;2023-03-12T01:04:24;63.86;58.94;68.55;;
73206;Laerm;61415;55.702;37.460;2023-03-12T01:04:54;59.82;56.20;64.77;;
73206;Laerm;61415;55.702;37.460;2023-03-12T01:05:25;61.89;58.00;65.55;;
73206;Laerm;61415;55.702;37.460;2023-03-12T01:05:56;62.42;58.02;67.24;;
73206;Laerm;61415;55.702;37.460;2023-03-12T01:06:27;65.85;59.79;71.67;;
73206;Laerm;61415;55.702;37.460;2023-03-12T01:06:57;61.87;59.12;65.02;;
73206;Laerm;61415;55.702;37.460;2023-03-12T01:07:28;62.60;58.17;66.75;;
73206;Laerm;61415;55.702;37.460;2023-03-12T01:07:59;61.41;55.77;74.93;;
73206;Laerm;61415;55.702;37.460;2023-03-12T01:08:30;59.62;55.54;64.17;;
73206;Laerm;61415;55.702;37.460;2023-03-12T01:09:01;65.27;59.25;70.96;;
73206;Laerm;61415;55.702;37.460;2023-03-12T01:09:33;62.72;58.26;68.89;;
73206;Laerm;61415;55.702;37.460;2023-03-12T01:10:05;64.89;60.38;68.79;;
73206;Laerm;61415;55.702;37.460;2023-03-12T01:10:39;65.12;59.80;71.01;;
73206;Laerm;61415;55.702;37.460;2023-03-12T01:11:14;63.47;59.69;67.17;;
73206;Laerm;61415;55.702;37.460;2023-03-12T01:11:45;66.32;59.75;71.92;;
73206;Laerm;61415;55.702;37.460;2023-03-12T01:12:15;66.32;59.76;71.67;;
73206;Laerm;61415;55.702;37.460;2023-03-12T01:12:46;63.68;59.42;69.17;;
73206;Laerm;61415;55.702;37.460;2023-03-12T01:13:17;65.46;60.05;72.52;;
73206;Laerm;61415;55.702;37.460;2023-03-12T01:13:48;64.99;60.40;68.24;;
73206;Laerm;61415;55.702;37.460;2023-03-12T01:14:19;61.71;58.28;66.71;;
73206;Laerm;61415;55.702;37.460;2023-03-12T01:14:49;62.24;58.48;66.49;;
73206;Laerm;61415;55.702;37.460;2023-03-12T01:15:20;60.31;56.59;64.19;;
73206;Laerm;61415;55.702;37.460;2023-03-12T01:15:51;61.21;57.02;65.53;;
73206;Laerm;61415;55.702;37.460;2023-03-12T01:16:22;62.83;57.16;67.78;;
73206;Laerm;61415;55.702;37.460;2023-03-12T01:16:57;58.21;54.76;64.16;;
73206;Laerm;61415;55.702;37.460;2023-03-12T01:17:28;63.11;56.72;68.94;;
73206;Laerm;61415;55.702;37.460;2023-03-12T01:17:59;65.24;61.72;69.83;;
73206;Laerm;61415;55.702;37.460;2023-03-12T01:18:29;62.25;56.82;66.21;;
73206;Laerm;61415;55.702;37.460;2023-03-12T01:19:00;63.49;58.89;67.81;;
73206;Laerm;61415;55.702;37.460;2023-03-12T01:19:31;63.25;58.38;67.62;;
73206;Laerm;61415;55.702;37.460;2023-03-12T01:20:02;62.10;56.07;68.65;;
73206;Laerm;61415;55.702;37.460;2023-03-12T01:20:33;59.14;55.62;63.61;;
73206;Laerm;61415;55.702;37.460;2023-03-12T01:21:04;66.33;55.99;73.31;;
73206;Laerm;61415;55.702;37.460;2023-03-12T01:21:35;63.61;60.45;66.56;;
73206;Laerm;61415;55.702;37.460;2023-03-12T01:22:05;62.26;57.35;67.02;;
73206;Laerm;61415;55.702;37.460;2023-03-12T01:22:36;64.55;57.45;70.94;;
73206;Laerm;61415;55.702;37.460;2023-03-12T01:23:07;64.36;56.82;68.93;;
73206;Laerm;61415;55.702;37.460;2023-03-12T01:23:38;61.31;57.04;65.80;;
73206;Laerm;61415;55.702;37.460;2023-03-12T01:24:09;67.66;61.25;71.99;;
73206;Laerm;61415;55.702;37.460;2023-03-12T01:24:40;67.68;62.82;72.54;;
73206;Laerm;61415;55.702;37.460;2023-03-12T01:25:10;66.70;56.37;73.24;;
73206;Laerm;61415;55.702;37.460;2023-03-12T01:25:41;60.27;55.23;67.80;;
73206;Laerm;61415;55.702;37.460;2023-03-12T01:26:12;64.18;58.02;68.32;;
73206;Laerm;61415;55.702;37.460;2023-03-12T01:26:43;62.72;55.97;68.59;;
73206;Laerm;61415;55.702;37.460;2023-03-12T01:27:14;63.53;56.75;69.16;;
73206;Laerm;61415;55.702;37.460;2023-03-12T01:27:45;64.78;59.02;70.20;;
73206;Laerm;61415;55.702;37.460;2023-03-12T01:28:16;63.53;58.81;68.37;;
73206;Laerm;61415;55.702;37.460;2023-03-12T01:28:46;60.51;55.77;66.26;;
73206;Laerm;61415;55.702;37.460;2023-03-12T01:29:17;64.10;56.52;67.77;;
73206;Laerm;61415;55.702;37.460;2023-03-12T01:29:48;59.45;53.86;64.21;;
73206;Laerm;61415;55.702;37.460;2023-03-12T01:30:19;62.82;58.41;68.25;;
73206;Laerm;61415;55.702;37.460;2023-03-12T01:30:50;62.11;55.86;67.90;;
73206;Laerm;61415;55.702;37.460;2023-03-12T01:31:20;63.63;56.22;70.59;;
73206;Laerm;61415;55.702;37.460;2023-03-12T01:31:51;63.24;57.82;67.44;;
73206;Laerm;61415;55.702;37.460;2023-03-12T01:32:22;59.98;55.25;65.01;;
73206;Laerm;61415;55.702;37.460;2023-03-12T01:32:53;61.73;56.42;65.29;;
73206;Laerm;61415;55.702;37.460;2023-03-12T01:33:24;59.59;54.71;64.68;;
73206;Laerm;61415;55.702;37.460;2023-03-12T01:33:55;64.65;57.60;69.00;;
73206;Laerm;61415;55.702;37.460;2023-03-12T01:34:26;59.57;53.28;64.98;;
73206;Laerm;61415;55.702;37.460;2023-03-12T01:34:57;63.02;55.86;69.60;;
73206;Laerm;61415;55.702;37.460;2023-03-12T01:35:28;65.08;57.03;70.60;;
73206;Laerm;61415;55.702;37.460;2023-03-12T01:35:58;65.39;59.34;69.80;;
73206;Laerm;61415;55.702;37.460;2023-03-12T01:36:29;64.95;60.44;70.37;;
73206;Laerm;61415;55.702;37.460;2023-03-12T01:37:00;66.19;61.19;70.53;;
73206;Laerm;61415;55.702;37.460;2023-03-12T01:37:31;70.30;64.47;76.03;;
73206;Laerm;61415;55.702;37.460;2023-03-12T01:38:02;62.84;57.40;67.92;;
73206;Laerm;61415;55.702;37.460;2023-03-12T01:38:33;62.34;56.59;65.85;;
73206;Laerm;61415;55.702;37.460;2023-03-12T01:39:04;66.50;59.36;70.65;;
73206;Laerm;61415;55.702;37.460;2023-03-12T01:39:34;65.72;59.59;70.37;;
73206;Laerm;61415;55.702;37.460;2023-03-12T01:40:05;63.50;60.09;67.49;;
73206;Laerm;61415;55.702;37.460;2023-03-12T01:40:36;63.01;55.66;68.46;;
73206;Laerm;61415;55.702;37.460;2023-03-12T01:41:07;65.95;59.14;70.88;;
73206;Laerm;61415;55.702;37.460;2023-03-12T01:41:38;62.11;57.01;66.57;;
73206;Laerm;61415;55.702;37.460;2023-03-12T01:42:09;60.59;57.09;65.44;;
73206;Laerm;61415;55.702;37.460;2023-03-12T01:42:40;64.22;59.33;69.81;;
73206;Laerm;61415;55.702;37.460;2023-03-12T01:43:21;65.36;59.79;70.48;;
73206;Laerm;61415;55.702;37.460;2023-03-12T01:43:52;62.63;58.17;67.17;;
73206;Laerm;61415;55.702;37.460;2023-03-12T01:44:22;59.47;53.40;65.10;;
73206;Laerm;61415;55.702;37.460;2023-03-12T01:46:26;62.59;57.08;70.53;;
73206;Laerm;61415;55.702;37.460;2023-03-12T01:46:57;64.38;58.09;67.63;;
73206;Laerm;61415;55.702;37.460;2023-03-12T01:47:28;61.98;56.55;65.87;;
73206;Laerm;61415;55.702;37.460;2023-03-12T01:48:02;62.76;56.35;70.05;;
73206;Laerm;61415;55.702;37.460;2023-03-12T01:48:40;63.06;55.94;68.87;;
73206;Laerm;61415;55.702;37.460;2023-03-12T01:49:15;62.31;56.61;67.22;;
73206;Laerm;61415;55.702;37.460;2023-03-12T01:49:47;61.66;55.60;66.01;;
73206;Laerm;61415;55.702;37.460;2023-03-12T01:50:19;62.66;56.87;67.40;;
73206;Laerm;61415;55.702;37.460;2023-03-12T01:50:50;63.42;58.45;67.15;;
73206;Laerm;61415;55.702;37.460;2023-03-12T01:51:21;67.05;63.26;72.15;;
73206;Laerm;61415;55.702;37.460;2023-03-12T01:52:03;64.39;60.15;68.29;;
73206;Laerm;61415;55.702;37.460;2023-03-12T01:52:36;60.98;56.23;65.05;;
73206;Laerm;61415;55.702;37.460;2023-03-12T01:53:07;63.02;56.43;67.74;;
73206;Laerm;61415;55.702;37.460;2023-03-12T01:53:38;65.20;59.23;68.41;;
73206;Laerm;61415;55.702;37.460;2023-03-12T01:54:32;60.18;55.26;65.17;;
73206;Laerm;61415;55.702;37.460;2023-03-12T01:55:32;60.71;55.14;70.32;;
73206;Laerm;61415;55.702;37.460;2023-03-12T01:56:03;63.04;58.90;71.59;;
73206;Laerm;61415;55.702;37.460;2023-03-12T01:56:34;64.97;58.85;72.20;;
73206;Laerm;61415;55.702;37.460;2023-03-12T01:57:07;64.01;57.86;71.45;;
73206;Laerm;61415;55.702;37.460;2023-03-12T01:57:49;63.30;59.12;73.43;;
73206;Laerm;61415;55.702;37.460;2023-03-12T01:58:22;61.48;55.08;70.06;;
73206;Laerm;61415;55.702;37.460;2023-03-12T01:58:53;66.31;60.16;72.43;;
73206;Laerm;61415;55.702;37.460;2023-03-12T01:59:27;64.79;60.16;73.26;;
73206;Laerm;61415;55.702;37.460;2023-03-12T02:00:02;63.83;56.10;73.34;;
73206;Laerm;61415;55.702;37.460;2023-03-12T02:00:35;61.97;54.58;74.87;;
73206;Laerm;61415;55.702;37.460;2023-03-12T02:01:05;63.71;53.99;75.42;;
73206;Laerm;61415;55.702;37.460;2023-03-12T02:01:36;64.11;58.13;73.76;;
73206;Laerm;61415;55.702;37.460;2023-03-12T02:02:07;59.08;53.98;70.31;;
73206;Laerm;61415;55.702;37.460;2023-03-12T02:02:39;59.51;52.73;74.02;;
73206;Laerm;61415;55.702;37.460;2023-03-12T02:03:10;62.63;54.33;73.56;;
73206;Laerm;61415;55.702;37.460;2023-03-12T02:03:43;64.43;55.50;74.35;;
73206;Laerm;61415;55.702;37.460;2023-03-12T02:04:17;68.70;58.19;76.87;;
73206;Laerm;61415;55.702;37.460;2023-03-12T02:04:48;66.40;57.13;75.29;;
73206;Laerm;61415;55.702;37.460;2023-03-12T02:05:24;62.90;55.94;75.70;;
73206;Laerm;61415;55.702;37.460;2023-03-12T02:06:02;63.43;56.88;74.22;;
73206;Laerm;61415;55.702;37.460;2023-03-12T02:06:36;64.21;56.04;74.55;;
73206;Laerm;61415;55.702;37.460;2023-03-12T02:07:12;64.33;58.58;74.57;;
73206;Laerm;61415;55.702;37.460;2023-03-12T02:07:43;63.27;57.93;74.51;;
73206;Laerm;61415;55.702;37.460;2023-03-12T02:08:14;64.13;57.34;76.51;;
73206;Laerm;61415;55.702;37.460;2023-03-12T02:08:46;68.62;58.54;77.60;;
73206;Laerm;61415;55.702;37.460;2023-03-12T02:09:17;64.80;58.59;76.55;;
73206;Laerm;61415;55.702;37.460;2023-03-12T02:09:49;64.37;56.90;75.27;;
73206;Laerm;61415;55.702;37.460;2023-03-12T02:10:20;64.94;58.27;78.92;;
73206;Laerm;61415;55.702;37.460;2023-03-12T02:10:51;67.27;61.66;77.30;;
73206;Laerm;61415;55.702;37.460;2023-03-12T02:11:22;64.30;56.36;79.34;;
73206;Laerm;61415;55.702;37.460;2023-03-12T02:11:53;65.27;57.69;76.78;;
73206;Laerm;61415;55.702;37.460;2023-03-12T02:12:24;65.18;59.23;77.54;;
73206;Laerm;61415;55.702;37.460;2023-03-12T02:12:54;65.81;58.23;77.14;;
73206;Laerm;61415;55.702;37.460;2023-03-12T02:13:25;65.79;55.44;78.85;;
73206;Laerm;61415;55.702;37.460;2023-03-12T02:13:57;63.68;54.67;78.05;;
73206;Laerm;61415;55.702;37.460;2023-03-12T02:14:28;64.86;57.15;76.71;;
73206;Laerm;61415;55.702;37.460;2023-03-12T02:14:59;65.41;61.39;76.45;;
73206;Laerm;61415;55.702;37.460;2023-03-12T02:15:30;66.50;61.35;77.09;;
73206;Laerm;61415;55.702;37.460;2023-03-12T02:16:01;64.43;57.21;76.78;;
73206;Laerm;61415;55.702;37.460;2023-03-12T02:16:32;65.04;58.68;77.87;;
73206;Laerm;61415;55.702;37.460;2023-03-12T02:17:03;64.51;58.26;77.58;;
73206;Laerm;61415;55.702;37.460;2023-03-12T02:17:34;65.12;58.17;76.44;;
73206;Laerm;61415;55.702;37.460;2023-03-12T02:18:06;65.07;56.90;77.31;;
73206;Laerm;61415;55.702;37.460;2023-03-12T02:18:37;61.92;53.78;77.03;;
73206;Laerm;61415;55.702;37.460;2023-03-12T02:19:12;66.88;58.18;77.19;;
73206;Laerm;61415;55.702;37.460;2023-03-12T02:21:15;64.76;55.76;78.58;;
73206;Laerm;61415;55.702;37.460;2023-03-12T02:21:49;65.82;58.57;79.89;;
73206;Laerm;61415;55.702;37.460;2023-03-12T02:22:20;63.54;52.66;77.68;;
73206;Laerm;61415;55.702;37.460;2023-03-12T02:22:54;63.95;54.64;79.21;;
73206;Laerm;61415;55.702;37.460;2023-03-12T02:23:37;68.97;58.39;78.88;;
73206;Laerm;61415;55.702;37.460;2023-03-12T02:24:14;66.43;58.79;79.17;;
73206;Laerm;61415;55.702;37.460;2023-03-12T02:24:51;65.49;57.87;78.24;;
73206;Laerm;61415;55.702;37.460;2023-03-12T02:25:39;65.01;58.40;79.38;;
73206;Laerm;61415;55.702;37.460;2023-03-12T02:26:11;65.66;55.93;78.83;;
73206;Laerm;61415;55.702;37.460;2023-03-12T02:26:43;65.11;55.53;78.97;;
73206;Laerm;61415;55.702;37.460;2023-03-12T02:27:13;67.79;59.99;79.90;;
73206;Laerm;61415;55.702;37.460;2023-03-12T02:27:45;67.07;57.87;82.25;;
73206;Laerm;61415;55.702;37.460;2023-03-12T02:28:17;67.68;60.28;80.99;;
73206;Laerm;61415;55.702;37.460;2023-03-12T02:28:49;66.08;57.24;79.81;;
73206;Laerm;61415;55.702;37.460;2023-03-12T02:29:20;66.49;58.93;77.90;;
73206;Laerm;61415;55.702;37.460;2023-03-12T02:29:51;67.93;60.06;80.48;;
73206;Laerm;61415;55.702;37.460;2023-03-12T02:30:22;66.91;58.26;79.39;;
73206;Laerm;61415;55.702;37.460;2023-03-12T02:30:56;66.63;58.95;78.51;;
73206;Laerm;61415;55.702;37.460;2023-03-12T02:31:49;68.47;60.21;79.26;;
73206;Laerm;61415;55.702;37.460;2023-03-12T02:32:27;64.53;55.05;78.79;;
73206;Laerm;61415;55.702;37.460;2023-03-12T02:32:59;65.17;57.15;79.24;;
73206;Laerm;61415;55.702;37.460;2023-03-12T02:33:31;65.70;57.16;80.08;;
73206;Laerm;61415;55.702;37.460;2023-03-12T02:34:02;67.30;59.17;80.48;;
73206;Laerm;61415;55.702;37.460;2023-03-12T02:34:33;66.29;57.48;79.33;;
73206;Laerm;61415;55.702;37.460;2023-03-12T02:35:05;65.26;54.49;78.43;;
73206;Laerm;61415;55.702;37.460;2023-03-12T02:35:36;67.22;60.15;79.87;;
73206;Laerm;61415;55.702;37.460;2023-03-12T02:36:07;64.73;54.14;79.41;;
73206;Laerm;61415;55.702;37.460;2023-03-12T02:36:38;65.03;55.27;79.26;;
73206;Laerm;61415;55.702;37.460;2023-03-12T02:37:09;66.49;58.13;79.61;;
73206;Laerm;61415;55.702;37.460;2023-03-12T02:37:50;65.68;56.37;81.41;;
73206;Laerm;61415;55.702;37.460;2023-03-12T02:39:04;67.43;60.66;80.46;;
73206;Laerm;61415;55.702;37.460;2023-03-12T02:39:35;67.67;61.26;78.75;;
73206;Laerm;61415;55.702;37.460;2023-03-12T02:40:14;65.35;59.21;78.42;;
73206;Laerm;61415;55.702;37.460;2023-03-12T02:40:46;67.86;56.69;79.67;;
73206;Laerm;61415;55.702;37.460;2023-03-12T02:41:19;66.13;55.36;78.27;;
73206;Laerm;61415;55.702;37.460;2023-03-12T02:41:53;67.18;61.53;81.00;;
73206;Laerm;61415;55.702;37.460;2023-03-12T02:42:24;68.01;60.11;79.86;;
73206;Laerm;61415;55.702;37.460;2023-03-12T02:42:55;66.26;58.66;78.91;;
73206;Laerm;61415;55.702;37.460;2023-03-12T02:43:26;64.91;56.81;79.75;;
73206;Laerm;61415;55.702;37.460;2023-03-12T02:44:02;67.43;60.40;80.89;;
73206;Laerm;61415;55.702;37.460;2023-03-12T02:44:34;66.65;57.23;81.05;;
73206;Laerm;61415;55.702;37.460;2023-03-12T02:45:07;66.59;57.81;80.16;;
73206;Laerm;61415;55.702;37.460;2023-03-12T02:45:38;66.72;57.95;82.03;;
73206;Laerm;61415;55.702;37.460;2023-03-12T02:46:09;66.57;58.01;80.12;;
73206;Laerm;61415;55.702;37.460;2023-03-12T02:46:41;67.26;57.93;80.83;;
73206;Laerm;61415;55.702;37.460;2023-03-12T02:47:12;67.70;57.72;79.36;;
73206;Laerm;61415;55.702;37.460;2023-03-12T02:47:42;68.51;59.80;83.01;;
73206;Laerm;61415;55.702;37.460;2023-03-12T02:48:13;65.34;55.40;80.31;;
73206;Laerm;61415;55.702;37.460;2023-03-12T02:48:44;66.63;57.00;81.14;;
73206;Laerm;61415;55.702;37.460;2023-03-12T02:49:15;66.20;52.82;79.73;;
73206;Laerm;61415;55.702;37.460;2023-03-12T02:49:46;66.30;56.56;80.75;;
73206;Laerm;61415;55.702;37.460;2023-03-12T02:50:17;65.80;56.68;80.94;;
73206;Laerm;61415;55.702;37.460;2023-03-12T02:50:48;69.88;61.59;81.03;;
73206;Laerm;61415;55.702;37.460;2023-03-12T02:51:19;67.69;54.17;80.68;;
73206;Laerm;61415;55.702;37.460;2023-03-12T02:51:50;66.70;54.70;80.69;;
73206;Laerm;61415;55.702;37.460;2023-03-12T02:52:20;68.86;56.46;80.30;;
73206;Laerm;61415;55.702;37.460;2023-03-12T02:52:51;63.79;54.94;79.01;;
73206;Laerm;61415;55.702;37.460;2023-03-12T02:53:22;66.99;56.75;78.97;;
73206;Laerm;61415;55.702;37.460;2023-03-12T02:53:53;65.62;57.78;78.82;;
73206;Laerm;61415;55.702;37.460;2023-03-12T02:54:24;64.28;55.87;80.05;;
73206;Laerm;61415;55.702;37.460;2023-03-12T02:54:55;67.44;59.11;80.31;;
73206;Laerm;61415;55.702;37.460;2023-03-12T02:55:26;69.02;63.56;82.38;;
73206;Laerm;61415;55.702;37.460;2023-03-12T02:55:57;66.40;58.24;80.13;;
73206;Laerm;61415;55.702;37.460;2023-03-12T02:56:29;67.88;62.21;79.78;;
73206;Laerm;61415;55.702;37.460;2023-03-12T02:57:00;65.84;57.57;81.13;;
73206;Laerm;61415;55.702;37.460;2023-03-12T02:57:31;66.32;58.63;78.82;;
73206;Laerm;61415;55.702;37.460;2023-03-12T02:58:02;67.39;61.89;80.53;;
73206;Laerm;61415;55.702;37.460;2023-03-12T02:58:32;66.29;56.00;79.61;;
73206;Laerm;61415;55.702;37.460;2023-03-12T02:59:04;63.34;54.02;78.90;;